Limon, Colorado
Current Conditions -  °F | °C
As of 9:55 PM on Wednesday 17 Dec 2014 (Local Time) from KLIC Reporting Station
Overcast Overcast  
Wind Chill: 20°   Ceiling: 7500
Heat Index: 20°   Visibility: 10mi
Dew Point: 19°   Wind: 3mph
Humidity: 96%   Direction: 80°E
Pressure: 29.99"   Gusts: NA
Location:  39.26°N, 103.69°W
Report Text: KLIC 180455Z AUTO 08003KT 10SM OVC075 M07/M07 A2999 RMK AO2 SLP188 T10671072
Loading
Personal Weather Stations






























Interactive Weather Map New forecast layout! Learn more

10-Day Weather Forecast

Advertisements
Track Severe Weather on mobile